createdAt,value
2022-12-18T00:01:38.808Z,32.00
2022-12-18T00:04:09.214Z,25.67
2022-12-18T00:06:37.040Z,31.92
2022-12-18T00:09:04.644Z,25.48
2022-12-18T00:11:33.083Z,31.00
2022-12-18T00:14:00.996Z,27.95
2022-12-18T00:16:31.008Z,30.30
2022-12-18T00:19:00.668Z,26.00
2022-12-18T00:21:29.723Z,31.37
2022-12-18T00:23:58.052Z,31.25
2022-12-18T00:26:28.051Z,28.10
2022-12-18T00:29:00.116Z,31.57
2022-12-18T00:33:57.128Z,23.67
2022-12-18T00:36:27.298Z,25.67
2022-12-18T00:38:56.827Z,25.80
2022-12-18T00:41:43.856Z,30.80
2022-12-18T00:44:14.606Z,26.70
2022-12-18T00:46:43.495Z,32.50
2022-12-18T00:49:15.734Z,24.65
2022-12-18T00:51:43.526Z,28.38
2022-12-18T00:54:12.795Z,30.55
2022-12-18T00:56:48.273Z,26.08
2022-12-18T00:59:17.978Z,30.90
2022-12-18T01:01:46.488Z,26.83
2022-12-18T01:04:14.937Z,32.17
2022-12-18T01:06:46.348Z,24.52
2022-12-18T01:09:14.145Z,28.40
2022-12-18T01:11:41.901Z,30.73
2022-12-18T01:14:11.024Z,24.55
2022-12-18T01:16:38.735Z,29.50
2022-12-18T01:19:06.528Z,25.20
2022-12-18T01:21:35.090Z,27.27
2022-12-18T01:24:05.299Z,30.20
2022-12-18T01:26:33.096Z,26.67
2022-12-18T01:29:00.985Z,29.10
2022-12-18T01:31:34.180Z,27.45
2022-12-18T01:34:04.927Z,34.22
2022-12-18T01:36:35.661Z,30.67
2022-12-18T01:39:07.342Z,25.50
2022-12-18T01:41:54.330Z,32.85
2022-12-18T01:44:59.416Z,27.20
2022-12-18T01:47:35.552Z,26.52
2022-12-18T01:50:20.791Z,32.97
2022-12-18T01:52:52.599Z,34.85
2022-12-18T01:55:23.312Z,36.17
2022-12-18T01:57:55.205Z,40.20
2022-12-18T02:00:24.708Z,33.15
2022-12-18T02:02:54.041Z,43.08
2022-12-18T02:05:30.488Z,35.58
2022-12-18T02:08:31.242Z,36.78
2022-12-18T02:11:11.307Z,31.73
2022-12-18T02:13:46.876Z,27.45
2022-12-18T02:16:30.535Z,28.85
2022-12-18T02:19:03.090Z,26.55
2022-12-18T02:21:42.883Z,24.67
2022-12-18T02:24:35.395Z,23.77
2022-12-18T02:27:07.631Z,26.62
2022-12-18T02:29:41.520Z,24.35
2022-12-18T02:32:17.857Z,28.77
2022-12-18T02:34:47.292Z,27.33
2022-12-18T02:37:19.115Z,27.27
2022-12-18T02:39:50.091Z,24.63
2022-12-18T02:42:19.091Z,25.62
2022-12-18T02:44:50.290Z,24.58
2022-12-18T02:47:22.925Z,29.00
2022-12-18T02:50:14.628Z,27.70
2022-12-18T02:52:47.087Z,25.67
2022-12-18T02:56:06.002Z,23.27
2022-12-18T02:58:52.820Z,23.23
2022-12-18T03:01:28.286Z,28.42
2022-12-18T03:04:30.875Z,26.75
2022-12-18T03:07:03.857Z,23.20
2022-12-18T03:09:42.185Z,26.02
2022-12-18T03:12:36.359Z,22.67
2022-12-18T03:15:17.221Z,24.65
2022-12-18T03:17:56.160Z,22.00
2022-12-18T03:20:31.328Z,27.10
2022-12-18T03:25:32.264Z,28.75
2022-12-18T03:28:03.198Z,31.50
2022-12-18T03:30:34.552Z,46.55
2022-12-18T03:33:14.378Z,44.35
2022-12-18T03:35:43.982Z,47.42
2022-12-18T03:38:12.822Z,41.05
2022-12-18T03:41:18.145Z,44.67
2022-12-18T03:43:52.128Z,27.42
2022-12-18T03:46:40.049Z,27.45
2022-12-18T03:49:14.911Z,28.10
2022-12-18T03:51:42.774Z,24.20
2022-12-18T03:54:12.500Z,27.35
2022-12-18T03:56:45.297Z,25.42
2022-12-18T03:59:17.077Z,28.10
2022-12-18T04:01:48.857Z,25.25
2022-12-18T04:04:19.989Z,27.40
2022-12-18T04:06:49.497Z,32.25
2022-12-18T04:09:19.343Z,29.93
2022-12-18T04:11:48.149Z,29.92
2022-12-18T04:14:18.212Z,28.40
2022-12-18T04:16:47.180Z,28.12
2022-12-18T04:19:15.412Z,27.75
2022-12-18T04:21:43.721Z,27.42
2022-12-18T04:24:11.872Z,24.83
2022-12-18T04:26:40.314Z,27.25
2022-12-18T04:29:10.250Z,28.60
2022-12-18T04:31:38.357Z,27.25
2022-12-18T04:34:06.146Z,25.52
2022-12-18T04:36:35.254Z,25.90
2022-12-18T04:39:03.672Z,24.67
2022-12-18T04:41:31.561Z,24.70
2022-12-18T04:43:59.368Z,27.58
2022-12-18T04:46:27.295Z,31.35
2022-12-18T04:48:54.875Z,26.67
2022-12-18T04:51:26.464Z,24.10
2022-12-18T04:53:55.229Z,24.58
2022-12-18T04:56:23.260Z,28.33
2022-12-18T04:58:50.915Z,24.25
2022-12-18T05:01:19.733Z,25.58
2022-12-18T05:03:47.570Z,23.23
2022-12-18T05:06:15.361Z,23.73
2022-12-18T05:08:43.272Z,24.12
2022-12-18T05:11:15.072Z,26.48
2022-12-18T05:13:44.652Z,23.42
2022-12-18T05:16:13.865Z,27.42
2022-12-18T05:18:41.769Z,23.48
2022-12-18T05:21:09.803Z,23.02
2022-12-18T05:23:38.135Z,22.50
2022-12-18T05:26:07.425Z,28.65
2022-12-18T05:28:36.844Z,24.95
2022-12-18T05:31:05.390Z,26.25
2022-12-18T05:33:35.576Z,26.87
2022-12-18T05:36:06.561Z,26.25
2022-12-18T05:38:36.007Z,24.55
2022-12-18T05:41:06.087Z,24.40
2022-12-18T05:43:35.812Z,25.77
2022-12-18T05:46:14.035Z,26.15
2022-12-18T05:48:43.160Z,26.35
2022-12-18T05:51:16.182Z,28.73
2022-12-18T05:53:44.415Z,28.90
2022-12-18T05:56:15.834Z,30.73
2022-12-18T05:58:43.472Z,31.00
2022-12-18T06:01:18.408Z,32.42
2022-12-18T06:03:47.166Z,32.50
2022-12-18T06:06:15.820Z,32.42
2022-12-18T06:08:46.384Z,33.67
2022-12-18T06:11:19.258Z,32.67
2022-12-18T06:13:47.696Z,46.00
2022-12-18T06:16:15.690Z,53.38
2022-12-18T06:18:43.357Z,44.80
2022-12-18T06:21:11.024Z,33.50
2022-12-18T06:23:39.466Z,36.35
2022-12-18T06:26:10.751Z,34.05
2022-12-18T06:28:38.438Z,28.27
2022-12-18T06:31:07.202Z,28.52
2022-12-18T06:33:35.493Z,33.53
2022-12-18T06:36:14.009Z,32.75
2022-12-18T06:38:44.306Z,27.40
2022-12-18T06:41:14.644Z,33.92
2022-12-18T06:43:43.343Z,25.60
2022-12-18T06:46:11.970Z,27.17
2022-12-18T06:48:40.310Z,27.35
2022-12-18T06:51:08.248Z,32.15
2022-12-18T06:53:35.841Z,27.55
2022-12-18T06:56:09.835Z,32.33
2022-12-18T06:58:39.977Z,29.10
2022-12-18T07:01:10.187Z,29.23
2022-12-18T07:03:40.433Z,26.42
2022-12-18T07:06:15.586Z,29.02
2022-12-18T07:08:43.669Z,34.00
2022-12-18T07:11:12.071Z,29.02
2022-12-18T07:13:40.121Z,27.50
2022-12-18T07:16:24.763Z,31.55
2022-12-18T07:18:56.006Z,28.35
2022-12-18T07:21:25.371Z,32.00
2022-12-18T07:23:53.320Z,28.85
2022-12-18T07:26:22.598Z,27.35
2022-12-18T07:28:51.261Z,27.55
2022-12-18T07:31:22.090Z,28.10
2022-12-18T07:33:51.203Z,25.77
2022-12-18T07:36:19.694Z,26.25
2022-12-18T07:38:50.883Z,26.98
2022-12-18T07:41:19.793Z,24.70
2022-12-18T07:43:47.688Z,22.95
2022-12-18T07:46:16.678Z,22.60
2022-12-18T07:48:45.542Z,22.75
2022-12-18T07:51:17.923Z,24.92
2022-12-18T07:53:49.537Z,23.55
2022-12-18T07:56:29.962Z,23.30
2022-12-18T07:59:00.152Z,23.33
2022-12-18T08:01:28.464Z,25.42
2022-12-18T08:03:56.902Z,23.75
2022-12-18T08:06:24.957Z,31.37
2022-12-18T08:08:56.843Z,23.20
2022-12-18T08:11:26.849Z,24.55
2022-12-18T08:13:54.757Z,22.58
2022-12-18T08:16:23.008Z,20.05
2022-12-18T08:18:53.448Z,22.27
2022-12-18T08:21:24.467Z,22.10
2022-12-18T08:23:54.623Z,23.02
2022-12-18T08:26:23.370Z,21.20
2022-12-18T08:28:51.687Z,21.52
2022-12-18T08:31:20.138Z,20.27
2022-12-18T08:33:53.293Z,24.35
2022-12-18T08:36:22.214Z,22.70
2022-12-18T08:38:49.836Z,21.25
2022-12-18T08:41:19.115Z,23.42
2022-12-18T08:44:16.314Z,23.60
2022-12-18T08:46:45.004Z,21.65
2022-12-18T08:49:13.860Z,22.25
2022-12-18T08:51:41.508Z,26.50
2022-12-18T08:54:14.927Z,23.30
2022-12-18T08:56:42.795Z,26.00
2022-12-18T08:59:15.786Z,23.73
2022-12-18T09:01:47.789Z,24.25
2022-12-18T09:04:15.388Z,24.05
2022-12-18T09:06:42.958Z,24.87
2022-12-18T09:09:11.554Z,26.42
2022-12-18T09:11:39.341Z,23.52
2022-12-18T09:14:07.019Z,24.65
2022-12-18T09:16:36.137Z,25.23
2022-12-18T09:19:05.613Z,27.00
2022-12-18T09:21:37.142Z,26.83
2022-12-18T09:24:08.797Z,25.20
2022-12-18T09:26:36.897Z,25.92
2022-12-18T09:29:05.756Z,27.42
2022-12-18T09:31:34.257Z,26.95
2022-12-18T09:34:01.896Z,26.90
2022-12-18T09:36:29.680Z,26.95
2022-12-18T09:38:57.190Z,36.70
2022-12-18T09:41:40.176Z,29.00
2022-12-18T09:44:29.290Z,28.98
2022-12-18T09:46:56.820Z,26.70
2022-12-18T09:49:29.841Z,28.25
2022-12-18T09:52:10.838Z,28.45
2022-12-18T09:57:32.986Z,24.65
2022-12-18T10:00:20.140Z,26.40
2022-12-18T10:02:49.033Z,29.70
2022-12-18T10:05:32.333Z,29.42
2022-12-18T10:08:14.843Z,29.83
2022-12-18T10:11:41.810Z,30.23
2022-12-18T10:14:36.957Z,29.52
2022-12-18T10:17:27.559Z,30.30
2022-12-18T10:20:02.223Z,28.58
2022-12-18T10:22:35.611Z,37.70
2022-12-18T10:25:15.496Z,32.67
2022-12-18T10:27:43.110Z,30.05
2022-12-18T10:30:21.956Z,33.20
2022-12-18T10:32:49.830Z,29.08
2022-12-18T10:35:27.792Z,32.67
2022-12-18T10:38:04.524Z,35.95
2022-12-18T10:40:33.843Z,31.33
2022-12-18T10:43:06.794Z,35.67
2022-12-18T10:45:34.755Z,38.83
2022-12-18T10:48:04.350Z,33.65
2022-12-18T10:51:09.761Z,35.47
2022-12-18T10:53:31.799Z,32.42
2022-12-18T10:56:04.588Z,34.97
2022-12-18T10:58:37.908Z,31.52
2022-12-18T11:01:10.496Z,30.83
2022-12-18T11:04:02.688Z,33.33
2022-12-18T11:06:33.882Z,29.65
2022-12-18T11:09:19.841Z,32.83
2022-12-18T11:11:56.326Z,28.35
2022-12-18T11:14:31.796Z,26.83
2022-12-18T11:20:00.925Z,26.23
2022-12-18T11:22:31.882Z,25.52
2022-12-18T11:27:58.015Z,29.95
2022-12-18T11:33:23.052Z,23.75
2022-12-18T11:36:03.759Z,25.62
2022-12-18T11:38:40.355Z,23.73
2022-12-18T11:42:08.446Z,25.27
2022-12-18T11:44:54.485Z,22.62
2022-12-18T11:47:34.391Z,22.95
2022-12-18T11:50:04.358Z,22.92
2022-12-18T11:52:40.073Z,23.95
2022-12-18T11:55:36.577Z,24.25
2022-12-18T11:58:31.127Z,23.83
2022-12-18T12:01:15.453Z,28.98
2022-12-18T12:03:58.341Z,24.52
2022-12-18T12:06:50.597Z,24.08
2022-12-18T12:09:28.237Z,28.87
2022-12-18T12:12:07.835Z,28.10
2022-12-18T12:15:07.011Z,26.83
2022-12-18T12:17:51.424Z,25.92
2022-12-18T12:20:22.443Z,25.37
2022-12-18T12:23:06.927Z,30.10
2022-12-18T12:25:55.003Z,34.22
2022-12-18T12:29:09.225Z,30.15
2022-12-18T12:31:41.426Z,25.25
2022-12-18T12:34:20.282Z,31.87
2022-12-18T12:36:51.008Z,34.50
2022-12-18T12:39:24.221Z,34.50
2022-12-18T12:42:11.352Z,34.67
2022-12-18T12:44:48.999Z,32.97
2022-12-18T12:50:00.581Z,31.60
2022-12-18T12:52:36.500Z,30.37
2022-12-18T12:55:11.617Z,33.88
2022-12-18T12:57:49.565Z,36.55
2022-12-18T13:00:20.379Z,32.15
2022-12-18T13:02:52.811Z,33.20
2022-12-18T13:05:38.973Z,31.30
2022-12-18T13:08:09.835Z,28.17
2022-12-18T13:10:41.598Z,28.20
2022-12-18T13:13:17.222Z,32.88
2022-12-18T13:16:06.690Z,28.87
2022-12-18T13:18:36.256Z,28.35
2022-12-18T13:21:18.988Z,33.45
2022-12-18T13:23:46.974Z,29.67
2022-12-18T13:26:19.123Z,28.42
2022-12-18T13:28:55.912Z,27.60
2022-12-18T13:31:42.274Z,32.63
2022-12-18T13:34:26.731Z,44.70
2022-12-18T13:37:19.007Z,26.55
2022-12-18T13:42:34.881Z,23.30
2022-12-18T13:45:03.605Z,29.10
2022-12-18T13:47:38.485Z,26.05
2022-12-18T13:50:36.442Z,24.80
2022-12-18T13:53:05.962Z,30.17
2022-12-18T13:55:34.607Z,26.42
2022-12-18T13:58:08.202Z,29.95
2022-12-18T14:00:36.890Z,32.22
2022-12-18T14:03:22.725Z,30.85
2022-12-18T14:05:56.873Z,28.80
2022-12-18T14:08:34.024Z,29.85
2022-12-18T14:11:04.517Z,28.48
2022-12-18T14:13:43.429Z,37.08
2022-12-18T14:16:15.590Z,32.40
2022-12-18T14:18:52.758Z,32.20
2022-12-18T14:21:24.806Z,31.60
2022-12-18T14:24:20.256Z,27.50
2022-12-18T14:26:50.474Z,31.12
2022-12-18T14:29:30.911Z,29.35
2022-12-18T14:32:14.952Z,30.50
2022-12-18T14:35:09.562Z,31.23
2022-12-18T14:37:37.211Z,37.63
2022-12-18T14:40:14.201Z,44.50
2022-12-18T14:42:41.756Z,37.00
2022-12-18T14:45:43.503Z,48.13
2022-12-18T14:48:23.271Z,28.98
2022-12-18T14:51:01.247Z,33.55
2022-12-18T14:53:49.141Z,32.95
2022-12-18T14:56:25.057Z,28.62
2022-12-18T14:58:56.678Z,35.15
2022-12-18T15:01:33.186Z,34.50
2022-12-18T15:04:03.244Z,28.95
2022-12-18T15:06:40.884Z,31.73
2022-12-18T15:09:25.981Z,26.35
2022-12-18T15:12:00.230Z,27.10
2022-12-18T15:14:30.926Z,28.15
2022-12-18T15:19:37.239Z,23.20
2022-12-18T15:22:18.573Z,24.55
2022-12-18T15:24:46.351Z,30.95
2022-12-18T15:27:39.281Z,32.03
2022-12-18T15:30:09.956Z,32.72
2022-12-18T15:32:40.557Z,31.20
2022-12-18T15:35:20.157Z,29.10
2022-12-18T15:37:48.911Z,29.98
2022-12-18T15:40:20.011Z,28.40
2022-12-18T15:45:34.788Z,24.17
2022-12-18T15:48:21.128Z,25.58
2022-12-18T15:50:50.872Z,25.88
2022-12-18T15:53:20.154Z,26.67
2022-12-18T15:56:06.550Z,28.70
2022-12-18T15:58:34.795Z,27.42
2022-12-18T16:01:03.137Z,23.75
2022-12-18T16:03:31.613Z,26.08
2022-12-18T16:06:01.293Z,24.48
2022-12-18T16:08:30.936Z,23.87
2022-12-18T16:10:59.296Z,31.67
2022-12-18T16:13:27.128Z,37.80
2022-12-18T16:15:55.008Z,38.42
2022-12-18T16:18:23.215Z,33.33
2022-12-18T16:20:51.172Z,34.92
2022-12-18T16:23:19.020Z,31.17
2022-12-18T16:25:47.432Z,30.27
2022-12-18T16:28:16.494Z,30.20
2022-12-18T16:30:44.329Z,38.85
2022-12-18T16:33:12.565Z,32.80
2022-12-18T16:35:40.517Z,37.85
2022-12-18T16:38:08.627Z,38.97
2022-12-18T16:40:58.836Z,31.33
2022-12-18T16:43:26.661Z,32.03
2022-12-18T16:45:58.356Z,27.48
2022-12-18T16:48:26.288Z,29.65
2022-12-18T16:51:04.940Z,30.27
2022-12-18T16:53:34.295Z,29.55
2022-12-18T16:56:03.258Z,28.30
2022-12-18T16:58:33.013Z,33.97
2022-12-18T17:01:01.096Z,28.45
2022-12-18T17:03:29.156Z,29.92
2022-12-18T17:06:03.454Z,32.72
2022-12-18T17:08:32.620Z,32.92
2022-12-18T17:11:07.523Z,32.20
2022-12-18T17:13:35.798Z,33.67
2022-12-18T17:16:05.213Z,34.85
2022-12-18T17:18:34.533Z,31.00
2022-12-18T17:21:06.028Z,32.30
2022-12-18T17:23:33.803Z,33.03
2022-12-18T17:26:01.655Z,35.95
2022-12-18T17:28:30.906Z,35.83
2022-12-18T17:30:58.737Z,38.00
2022-12-18T17:33:27.241Z,35.42
2022-12-18T17:35:59.210Z,34.38
2022-12-18T17:38:27.735Z,35.45
2022-12-18T17:41:01.474Z,34.75
2022-12-18T17:43:30.081Z,40.03
2022-12-18T17:46:07.875Z,38.67
2022-12-18T17:48:37.400Z,34.22
2022-12-18T17:51:11.029Z,33.95
2022-12-18T17:53:39.616Z,34.92
2022-12-18T17:56:13.448Z,42.00
2022-12-18T17:58:42.169Z,39.05
2022-12-18T18:01:13.942Z,39.83
2022-12-18T18:03:44.640Z,40.22
2022-12-18T18:06:13.581Z,31.45
2022-12-18T18:08:41.427Z,33.20
2022-12-18T18:11:32.700Z,32.30
2022-12-18T18:14:01.779Z,25.75
2022-12-18T18:16:36.600Z,27.62
2022-12-18T18:19:08.055Z,28.12
2022-12-18T18:21:43.280Z,28.80
2022-12-18T18:24:13.819Z,30.05
2022-12-18T18:26:42.450Z,29.42
2022-12-18T18:29:16.133Z,53.08
2022-12-18T18:31:44.728Z,38.50
2022-12-18T18:34:17.988Z,28.62
2022-12-18T18:36:47.011Z,29.25
2022-12-18T18:39:15.626Z,32.78
2022-12-18T18:41:47.019Z,31.60
2022-12-18T18:44:24.815Z,28.33
2022-12-18T18:46:58.960Z,27.35
2022-12-18T18:49:28.375Z,22.60
2022-12-18T18:51:57.571Z,22.80
2022-12-18T18:54:26.522Z,21.83
2022-12-18T18:59:43.620Z,22.40
2022-12-18T19:02:14.321Z,21.65
2022-12-18T19:04:45.747Z,20.83
2022-12-18T19:07:25.599Z,18.15
2022-12-18T19:10:03.932Z,19.05
2022-12-18T19:12:53.370Z,18.85
2022-12-18T19:15:22.576Z,18.70
2022-12-18T19:17:50.865Z,19.37
2022-12-18T19:20:18.970Z,18.50
2022-12-18T19:22:54.822Z,17.77
2022-12-18T19:25:40.722Z,16.85
2022-12-18T19:28:21.647Z,18.10
2022-12-18T19:30:55.369Z,17.98
2022-12-18T19:33:42.755Z,17.33
2022-12-18T19:36:24.051Z,17.70
2022-12-18T19:38:53.785Z,19.15
2022-12-18T19:41:23.354Z,19.35
2022-12-18T19:46:22.772Z,17.90
2022-12-18T19:48:51.296Z,18.58
2022-12-18T19:51:29.987Z,19.48
2022-12-18T19:54:01.620Z,21.67
2022-12-18T19:56:32.855Z,21.48
2022-12-18T19:59:03.813Z,19.20
2022-12-18T20:01:32.181Z,20.37
2022-12-18T20:04:01.056Z,19.75
2022-12-18T20:06:46.531Z,20.00
2022-12-18T20:09:15.056Z,19.52
2022-12-18T20:11:42.944Z,19.58
2022-12-18T20:14:12.578Z,20.48
2022-12-18T20:16:41.509Z,19.30
2022-12-18T20:19:12.111Z,21.17
2022-12-18T20:21:40.382Z,22.62
2022-12-18T20:24:09.471Z,22.17
2022-12-18T20:26:37.188Z,29.15
2022-12-18T20:29:05.192Z,43.05
2022-12-18T20:31:33.136Z,29.85
2022-12-18T20:34:02.617Z,23.27
2022-12-18T20:36:34.075Z,22.70
2022-12-18T20:39:05.388Z,18.85
2022-12-18T20:41:38.307Z,18.40
2022-12-18T20:44:21.717Z,20.48
2022-12-18T20:46:56.357Z,20.90
2022-12-18T20:49:26.147Z,21.60
2022-12-18T20:51:56.588Z,21.98
2022-12-18T20:54:26.139Z,21.02
2022-12-18T20:56:55.155Z,22.13
2022-12-18T20:59:25.200Z,22.67
2022-12-18T21:01:52.899Z,20.88
2022-12-18T21:04:22.182Z,19.98
2022-12-18T21:06:54.211Z,20.12
2022-12-18T21:09:37.680Z,19.45
2022-12-18T21:12:33.459Z,18.23
2022-12-18T21:15:05.331Z,18.45
2022-12-18T21:17:40.122Z,19.17
2022-12-18T21:20:18.102Z,18.80
2022-12-18T21:22:47.287Z,18.15
2022-12-18T21:25:15.157Z,20.92
2022-12-18T21:27:42.758Z,20.98
2022-12-18T21:30:10.937Z,19.73
2022-12-18T21:32:38.898Z,20.40
2022-12-18T21:35:06.831Z,22.27
2022-12-18T21:37:34.368Z,21.42
2022-12-18T21:40:02.340Z,20.45
2022-12-18T21:42:48.901Z,20.10
2022-12-18T21:45:16.914Z,21.40
2022-12-18T21:47:44.622Z,20.75
2022-12-18T21:50:12.928Z,20.00
2022-12-18T21:52:40.969Z,19.20
2022-12-18T21:55:10.244Z,18.52
2022-12-18T21:57:39.436Z,18.85
2022-12-18T22:00:18.761Z,19.65
2022-12-18T22:02:49.594Z,16.62
2022-12-18T22:05:36.487Z,17.95
2022-12-18T22:08:04.468Z,17.33
2022-12-18T22:10:32.109Z,16.27
2022-12-18T22:12:59.602Z,17.85
2022-12-18T22:15:27.557Z,16.05
2022-12-18T22:18:00.198Z,16.50
2022-12-18T22:20:29.948Z,14.10
2022-12-18T22:22:58.742Z,14.93
2022-12-18T22:25:28.959Z,13.10
2022-12-18T22:28:14.999Z,13.43
2022-12-18T22:30:44.028Z,12.23
2022-12-18T22:33:11.763Z,11.77
2022-12-18T22:35:39.344Z,13.20
2022-12-18T22:38:07.679Z,12.32
2022-12-18T22:40:35.259Z,12.30
2022-12-18T22:43:03.128Z,11.93
2022-12-18T22:45:30.965Z,11.88
2022-12-18T22:48:00.261Z,11.07
2022-12-18T22:50:28.006Z,10.13
2022-12-18T22:52:55.804Z,9.75
2022-12-18T22:55:23.301Z,11.70
2022-12-18T22:57:53.948Z,11.02
2022-12-18T23:00:24.598Z,9.38
2022-12-18T23:02:59.785Z,10.80
2022-12-18T23:05:31.720Z,9.93
2022-12-18T23:07:59.533Z,10.90
2022-12-18T23:10:28.737Z,11.48
2022-12-18T23:12:56.367Z,10.25
2022-12-18T23:15:27.781Z,9.60
2022-12-18T23:17:58.694Z,9.93
2022-12-18T23:20:29.278Z,8.93
2022-12-18T23:22:57.123Z,10.27
2022-12-18T23:25:24.717Z,8.10
2022-12-18T23:27:52.259Z,9.13
2022-12-18T23:30:20.233Z,9.27
2022-12-18T23:32:48.304Z,9.63
2022-12-18T23:35:17.178Z,8.38
2022-12-18T23:37:58.818Z,9.68
2022-12-18T23:40:27.757Z,9.40
2022-12-18T23:42:55.593Z,9.70
2022-12-18T23:45:23.206Z,10.35
2022-12-18T23:47:51.222Z,9.63
2022-12-18T23:50:19.360Z,9.35
2022-12-18T23:52:51.156Z,8.63
2022-12-18T23:55:19.007Z,8.93
2022-12-18T23:57:47.879Z,9.35
